createdAt,value
2016-10-03T03:01:13.358Z,19.23
2016-10-03T03:01:38.966Z,19.33
2016-10-03T03:02:04.528Z,19.36
2016-10-03T03:02:30.098Z,19.25
2016-10-03T03:02:55.670Z,19.32
2016-10-03T03:03:21.235Z,19.36
2016-10-03T03:03:46.797Z,19.39
2016-10-03T03:04:12.458Z,19.35
2016-10-03T03:04:38.044Z,19.32
2016-10-03T03:05:03.588Z,19.28
2016-10-03T03:05:29.135Z,19.33
2016-10-03T03:05:54.729Z,19.29
2016-10-03T03:06:20.348Z,19.36
2016-10-03T03:06:45.962Z,19.36
2016-10-03T03:07:11.499Z,19.32
2016-10-03T03:07:37.185Z,19.29
2016-10-03T03:08:02.762Z,19.36
2016-10-03T03:08:28.364Z,19.33
2016-10-03T03:08:53.949Z,19.36
2016-10-03T03:09:19.506Z,19.36
2016-10-03T03:10:07.359Z,19.33
2016-10-03T03:10:32.926Z,19.35
2016-10-03T03:10:58.455Z,19.35
2016-10-03T03:12:34.431Z,19.4
2016-10-03T03:13:01.615Z,19.33
2016-10-03T03:13:27.174Z,19.28
2016-10-03T03:13:52.718Z,19.35
2016-10-03T03:14:18.272Z,19.38
2016-10-03T03:14:43.931Z,19.4
2016-10-03T03:15:09.482Z,19.31
2016-10-03T03:15:35.027Z,19.36
2016-10-03T03:16:00.584Z,19.32
2016-10-03T03:16:26.140Z,19.33
2016-10-03T03:16:51.685Z,19.32
2016-10-03T03:17:17.298Z,19.32
2016-10-03T03:17:42.840Z,19.33
2016-10-03T03:18:08.386Z,19.29
2016-10-03T03:18:33.948Z,19.38
2016-10-03T03:18:59.515Z,19.33
2016-10-03T03:19:26.918Z,19.32
2016-10-03T03:19:52.516Z,19.28
2016-10-03T03:20:18.070Z,19.33
2016-10-03T03:20:43.612Z,19.32
2016-10-03T03:21:09.185Z,19.25
2016-10-03T03:21:34.758Z,19.32
2016-10-03T03:22:00.299Z,19.25
2016-10-03T03:22:58.664Z,19.38
2016-10-03T03:23:24.264Z,19.38
2016-10-03T03:23:49.842Z,19.33
2016-10-03T03:24:15.482Z,19.31
2016-10-03T03:25:03.331Z,19.33
2016-10-03T03:25:28.907Z,19.36
2016-10-03T03:27:18.744Z,19.28
2016-10-03T03:27:44.321Z,19.28
2016-10-03T03:28:09.869Z,19.23
2016-10-03T03:28:35.430Z,19.29
2016-10-03T03:29:01.025Z,19.33
2016-10-03T03:29:26.595Z,19.33
2016-10-03T03:29:52.169Z,19.29
2016-10-03T03:30:17.745Z,19.32
2016-10-03T03:30:43.292Z,19.36
2016-10-03T03:31:08.862Z,19.28
2016-10-03T03:31:34.439Z,19.31
2016-10-03T03:31:59.981Z,19.36
2016-10-03T03:32:25.628Z,19.36
2016-10-03T03:32:51.182Z,19.42
2016-10-03T03:33:16.794Z,19.33
2016-10-03T03:33:42.477Z,19.33
2016-10-03T03:34:08.017Z,19.4
2016-10-03T03:34:33.553Z,19.31
2016-10-03T03:34:59.145Z,19.32
2016-10-03T03:35:24.761Z,19.33
2016-10-03T03:35:50.328Z,19.35
2016-10-03T03:36:15.855Z,19.36
2016-10-03T03:37:03.727Z,19.33
2016-10-03T03:37:29.362Z,19.38
2016-10-03T03:37:54.915Z,19.36
2016-10-03T03:38:20.462Z,19.32
2016-10-03T03:38:46.024Z,19.31
2016-10-03T03:39:11.607Z,19.29
2016-10-03T03:39:37.241Z,19.35
2016-10-03T03:40:02.833Z,19.4
2016-10-03T03:40:28.400Z,19.33
2016-10-03T03:40:54.006Z,19.36
2016-10-03T03:41:19.562Z,19.29
2016-10-03T03:41:45.119Z,19.29
2016-10-03T03:42:10.661Z,19.33
2016-10-03T03:42:36.207Z,19.32
2016-10-03T03:43:01.772Z,19.32
2016-10-03T03:43:27.424Z,19.32
2016-10-03T03:43:52.999Z,19.31
2016-10-03T03:44:18.568Z,19.32
2016-10-03T03:44:44.172Z,19.31
2016-10-03T03:45:09.792Z,19.32
2016-10-03T03:45:36.066Z,19.35
2016-10-03T03:46:01.625Z,19.25
2016-10-03T03:46:27.228Z,19.35
2016-10-03T03:46:52.788Z,19.36
2016-10-03T03:47:18.367Z,19.29
2016-10-03T03:47:43.927Z,19.31
2016-10-03T03:48:09.485Z,19.33
2016-10-03T03:48:35.032Z,19.33
2016-10-03T03:49:00.576Z,19.36
2016-10-03T03:49:26.129Z,19.23
2016-10-03T03:49:51.685Z,19.35
2016-10-03T03:50:17.231Z,19.31
2016-10-03T03:50:42.835Z,19.23
2016-10-03T03:51:08.391Z,19.24
2016-10-03T03:51:33.927Z,19.36
2016-10-03T03:51:59.474Z,19.23
2016-10-03T03:52:25.026Z,19.24
2016-10-03T03:52:50.588Z,19.31
2016-10-03T03:53:16.135Z,19.4
2016-10-03T03:53:43.488Z,19.29
2016-10-03T03:54:09.071Z,19.24
2016-10-03T03:54:34.628Z,19.29
2016-10-03T03:55:00.999Z,19.24
2016-10-03T03:55:26.587Z,19.33
2016-10-03T03:55:52.160Z,19.23
2016-10-03T03:56:17.706Z,19.28
2016-10-03T03:56:43.255Z,19.33
2016-10-03T03:57:08.808Z,19.29
2016-10-03T03:57:34.378Z,19.35
2016-10-03T03:57:59.919Z,19.39
2016-10-03T03:58:25.457Z,19.29
2016-10-03T03:58:51.067Z,19.29
2016-10-03T03:59:16.623Z,19.29
2016-10-03T03:59:42.195Z,19.25
2016-10-03T04:00:07.829Z,19.35
2016-10-03T04:00:33.324Z,19.28
2016-10-03T04:00:58.868Z,19.36
2016-10-03T04:01:24.418Z,19.32
2016-10-03T04:01:49.985Z,19.23
2016-10-03T04:02:15.548Z,19.32
2016-10-03T04:02:41.206Z,19.25
2016-10-03T04:03:06.827Z,19.36
2016-10-03T04:03:32.439Z,19.36
2016-10-03T04:03:57.984Z,19.29
2016-10-03T04:04:23.658Z,19.25
2016-10-03T04:04:49.398Z,19.36
2016-10-03T04:05:15.032Z,19.28
2016-10-03T04:05:40.594Z,19.36
2016-10-03T04:06:06.180Z,19.33
2016-10-03T04:06:59.194Z,19.35
2016-10-03T04:07:24.742Z,19.36
2016-10-03T04:07:50.368Z,19.33
2016-10-03T04:08:15.947Z,19.32
2016-10-03T04:08:41.508Z,19.36
2016-10-03T04:09:07.139Z,19.31
2016-10-03T04:09:32.687Z,19.36
2016-10-03T04:09:58.240Z,19.23
2016-10-03T04:10:23.940Z,19.39
2016-10-03T04:10:49.480Z,19.32
2016-10-03T04:11:15.118Z,19.32
2016-10-03T04:11:40.667Z,19.31
2016-10-03T04:12:06.236Z,19.32
2016-10-03T04:12:31.791Z,19.28
2016-10-03T04:12:57.371Z,19.31
2016-10-03T04:13:22.974Z,19.32
2016-10-03T04:13:48.538Z,19.36
2016-10-03T04:14:14.088Z,19.35
2016-10-03T04:14:39.640Z,19.32
2016-10-03T04:15:05.206Z,19.32
2016-10-03T04:15:30.812Z,19.21
2016-10-03T04:15:56.390Z,19.25
2016-10-03T04:16:22.764Z,19.33
2016-10-03T04:16:48.376Z,19.29
2016-10-03T04:17:13.936Z,19.28
2016-10-03T04:17:39.502Z,19.32
2016-10-03T04:18:05.045Z,19.23
2016-10-03T04:18:30.610Z,19.24
2016-10-03T04:18:56.271Z,19.32
2016-10-03T04:19:21.845Z,19.29
2016-10-03T04:19:47.414Z,19.33
2016-10-03T04:20:12.978Z,19.32
2016-10-03T04:20:38.637Z,19.28
2016-10-03T04:21:04.187Z,19.23
2016-10-03T04:21:29.768Z,19.25
2016-10-03T04:21:55.406Z,19.29
2016-10-03T04:22:20.968Z,19.32
2016-10-03T04:22:46.501Z,19.28
2016-10-03T04:23:49.857Z,19.33
2016-10-03T04:24:15.400Z,19.31
2016-10-03T04:24:40.967Z,19.28
2016-10-03T04:25:06.537Z,19.29
2016-10-03T04:25:32.087Z,19.23
2016-10-03T04:25:57.757Z,19.33
2016-10-03T04:26:23.337Z,19.23
2016-10-03T04:26:48.896Z,19.31
2016-10-03T04:27:14.442Z,19.24
2016-10-03T04:27:40.011Z,19.23
2016-10-03T04:28:05.663Z,19.23
2016-10-03T04:28:31.238Z,19.25
2016-10-03T04:28:56.807Z,19.25
2016-10-03T04:29:22.439Z,19.29
2016-10-03T04:29:47.994Z,19.29
2016-10-03T04:30:13.555Z,19.31
2016-10-03T04:30:39.110Z,19.21
2016-10-03T04:31:04.665Z,19.29
2016-10-03T04:31:30.244Z,19.25
2016-10-03T04:31:55.799Z,19.28
2016-10-03T04:32:21.369Z,19.29
2016-10-03T04:32:46.931Z,19.2
2016-10-03T04:33:12.466Z,19.28
2016-10-03T04:33:38.035Z,19.29
2016-10-03T04:34:03.667Z,19.23
2016-10-03T04:34:29.220Z,19.32
2016-10-03T04:34:54.821Z,19.32
2016-10-03T04:35:20.381Z,19.29
2016-10-03T04:35:45.954Z,19.29
2016-10-03T04:36:11.535Z,19.25
2016-10-03T04:36:37.101Z,19.24
2016-10-03T04:37:02.661Z,19.31
2016-10-03T04:37:28.230Z,19.28
2016-10-03T04:37:53.771Z,19.29
2016-10-03T04:38:19.370Z,19.25
2016-10-03T04:38:44.901Z,19.28
2016-10-03T04:39:10.453Z,19.28
2016-10-03T04:39:35.993Z,19.24
2016-10-03T04:40:01.568Z,19.28
2016-10-03T04:40:27.251Z,19.29
2016-10-03T04:40:52.821Z,19.25
2016-10-03T04:41:18.356Z,19.24
2016-10-03T04:41:43.873Z,19.24
2016-10-03T04:42:09.402Z,19.29
2016-10-03T04:42:34.964Z,19.29
2016-10-03T04:43:00.692Z,19.24
2016-10-03T04:43:26.233Z,19.24
2016-10-03T04:43:51.770Z,19.25
2016-10-03T04:44:17.434Z,19.21
2016-10-03T04:44:43.055Z,19.21
2016-10-03T04:45:08.580Z,19.24
2016-10-03T04:45:34.224Z,19.18
2016-10-03T04:45:59.770Z,19.28
2016-10-03T04:46:25.313Z,19.25
2016-10-03T04:46:50.864Z,19.25
2016-10-03T04:47:16.414Z,19.24
2016-10-03T04:47:41.971Z,19.29
2016-10-03T04:48:07.531Z,19.29
2016-10-03T04:48:33.089Z,19.31
2016-10-03T04:48:58.646Z,19.24
2016-10-03T04:49:24.230Z,19.31
2016-10-03T04:49:49.800Z,19.21
2016-10-03T04:50:15.370Z,19.23
2016-10-03T04:50:40.997Z,19.24
2016-10-03T04:51:06.569Z,19.25
2016-10-03T04:51:32.189Z,19.21
2016-10-03T04:51:57.768Z,19.29
2016-10-03T04:52:23.324Z,19.25
2016-10-03T04:52:48.970Z,19.29
2016-10-03T04:53:14.628Z,19.25
2016-10-03T04:53:40.180Z,19.28
2016-10-03T04:54:05.758Z,19.24
2016-10-03T04:54:31.408Z,19.23
2016-10-03T04:54:56.989Z,19.25
2016-10-03T04:55:22.548Z,19.32
2016-10-03T04:55:48.153Z,19.31
2016-10-03T04:56:13.792Z,19.24
2016-10-03T04:56:39.372Z,19.21
2016-10-03T04:57:04.922Z,19.25
2016-10-03T04:57:30.584Z,19.28
2016-10-03T04:57:56.147Z,19.31
2016-10-03T04:58:21.744Z,19.25
2016-10-03T04:58:47.294Z,19.21
2016-10-03T04:59:13.063Z,19.31
2016-10-03T04:59:38.545Z,19.23
2016-10-03T05:00:04.091Z,19.23
2016-10-03T05:00:29.615Z,19.23
2016-10-03T05:00:55.175Z,19.23
2016-10-03T05:01:20.713Z,19.25
2016-10-03T05:01:46.279Z,19.25
2016-10-03T05:02:11.914Z,19.25
2016-10-03T05:02:37.484Z,19.23
2016-10-03T05:03:03.160Z,19.25
2016-10-03T05:03:28.710Z,19.21
2016-10-03T05:03:54.418Z,19.28
2016-10-03T05:04:19.967Z,19.24
2016-10-03T05:04:45.522Z,19.21
2016-10-03T05:05:11.216Z,19.21
2016-10-03T05:05:36.822Z,19.29
2016-10-03T05:06:02.313Z,19.2
2016-10-03T05:06:28.007Z,19.28
2016-10-03T05:06:53.622Z,19.21
2016-10-03T05:07:19.187Z,19.28
2016-10-03T05:07:44.747Z,19.23
2016-10-03T05:08:10.451Z,19.21
2016-10-03T05:09:03.481Z,19.17
2016-10-03T05:09:29.949Z,19.23
2016-10-03T05:09:55.565Z,19.23
2016-10-03T05:10:21.173Z,19.25
2016-10-03T05:10:46.763Z,19.25
2016-10-03T05:11:12.371Z,19.24
2016-10-03T05:12:05.341Z,19.25
2016-10-03T05:12:30.887Z,19.18
2016-10-03T05:12:56.547Z,19.29
2016-10-03T05:13:22.108Z,19.23
2016-10-03T05:13:47.658Z,19.25
2016-10-03T05:14:13.225Z,19.25
2016-10-03T05:14:38.771Z,19.24
2016-10-03T05:15:04.454Z,19.17
2016-10-03T05:15:30.024Z,19.29
2016-10-03T05:15:55.573Z,19.29
2016-10-03T05:16:21.167Z,19.23
2016-10-03T05:16:46.852Z,19.28
2016-10-03T05:17:12.407Z,19.25
2016-10-03T05:17:37.951Z,19.2
2016-10-03T05:18:03.522Z,19.24
2016-10-03T05:18:29.124Z,19.25
2016-10-03T05:18:54.671Z,19.24
2016-10-03T05:19:20.301Z,19.28
2016-10-03T05:19:45.867Z,19.23
2016-10-03T05:20:11.411Z,19.29
2016-10-03T05:20:37.009Z,19.24
2016-10-03T05:21:02.529Z,19.25
2016-10-03T05:21:28.076Z,19.25
2016-10-03T05:21:53.630Z,19.29
2016-10-03T05:22:19.222Z,19.28
2016-10-03T05:22:44.795Z,19.31
2016-10-03T05:23:10.370Z,19.24
2016-10-03T05:23:35.936Z,19.23
2016-10-03T05:24:01.509Z,19.29
2016-10-03T05:24:27.070Z,19.29
2016-10-03T05:24:52.627Z,19.28
2016-10-03T05:25:18.174Z,19.31
2016-10-03T05:25:43.720Z,19.25
2016-10-03T05:26:09.343Z,19.28
2016-10-03T05:26:34.910Z,19.25
2016-10-03T05:27:00.497Z,19.21
2016-10-03T05:27:26.054Z,19.25
2016-10-03T05:27:51.660Z,19.29
2016-10-03T05:28:17.205Z,19.29
2016-10-03T05:28:42.759Z,19.25
2016-10-03T05:29:08.315Z,19.24
2016-10-03T05:29:33.946Z,19.25
2016-10-03T05:29:59.525Z,19.25
2016-10-03T05:30:25.095Z,19.28
2016-10-03T05:30:50.684Z,19.29
2016-10-03T05:31:16.233Z,19.24
2016-10-03T05:31:41.801Z,19.25
2016-10-03T05:32:07.352Z,19.21
2016-10-03T05:32:32.904Z,19.29
2016-10-03T05:32:58.491Z,19.21
2016-10-03T05:33:24.073Z,19.31
2016-10-03T05:33:49.625Z,19.28
2016-10-03T05:34:15.202Z,19.28
2016-10-03T05:35:03.067Z,19.32
2016-10-03T05:35:28.616Z,19.25
2016-10-03T05:35:54.263Z,19.31
2016-10-03T05:36:19.851Z,19.35
2016-10-03T05:36:45.401Z,19.29
2016-10-03T05:37:10.955Z,19.31
2016-10-03T05:37:36.528Z,19.23
2016-10-03T05:38:02.068Z,19.21
2016-10-03T05:38:27.684Z,19.24
2016-10-03T05:38:53.252Z,19.28
2016-10-03T05:39:18.804Z,19.29
2016-10-03T05:39:44.371Z,19.23
2016-10-03T05:40:09.930Z,19.33
2016-10-03T05:40:35.515Z,19.23
2016-10-03T05:41:01.078Z,19.32
2016-10-03T05:41:26.642Z,19.39
2016-10-03T05:41:52.196Z,19.32
2016-10-03T05:42:17.904Z,19.28
2016-10-03T05:42:43.458Z,19.36
2016-10-03T05:43:09.011Z,19.31
2016-10-03T05:43:34.633Z,19.24
2016-10-03T05:44:00.204Z,19.23
2016-10-03T05:44:25.766Z,19.32
2016-10-03T05:44:51.313Z,19.29
2016-10-03T05:45:16.914Z,19.33
2016-10-03T05:45:42.467Z,19.24
2016-10-03T05:46:08.022Z,19.33
2016-10-03T05:46:33.574Z,19.36
2016-10-03T05:46:59.144Z,19.21
2016-10-03T05:47:24.799Z,19.29
2016-10-03T05:47:50.360Z,19.23
2016-10-03T05:48:15.911Z,19.31
2016-10-03T05:48:41.535Z,19.28
2016-10-03T05:49:07.103Z,19.28
2016-10-03T05:49:32.797Z,19.33
2016-10-03T05:49:58.428Z,19.33
2016-10-03T05:50:23.985Z,19.24
2016-10-03T05:50:49.558Z,19.31
2016-10-03T05:51:15.106Z,19.31
2016-10-03T05:51:40.720Z,19.35
2016-10-03T05:52:06.257Z,19.32
2016-10-03T05:52:31.819Z,19.36
2016-10-03T05:52:57.381Z,19.23
2016-10-03T05:53:23.176Z,19.35
2016-10-03T05:53:48.739Z,19.24
2016-10-03T05:54:14.484Z,19.25
2016-10-03T05:54:40.035Z,19.23
2016-10-03T05:55:05.603Z,19.32
2016-10-03T05:55:31.163Z,19.32
2016-10-03T05:55:56.865Z,19.25
2016-10-03T05:56:22.430Z,19.33
2016-10-03T05:56:48.006Z,19.28
2016-10-03T05:57:13.552Z,19.33
2016-10-03T05:57:39.115Z,19.29
2016-10-03T05:58:04.683Z,19.33
2016-10-03T05:58:30.261Z,19.28
2016-10-03T05:58:55.823Z,19.28
2016-10-03T05:59:21.370Z,19.32
2016-10-03T05:59:47.026Z,19.35
2016-10-03T06:00:50.237Z,19.23
2016-10-03T06:01:16.018Z,19.25
2016-10-03T06:01:41.618Z,19.28
2016-10-03T06:02:07.176Z,19.23
2016-10-03T06:02:32.825Z,19.35
2016-10-03T06:02:58.382Z,19.25
2016-10-03T06:03:24.084Z,19.35
2016-10-03T06:03:50.815Z,19.23
2016-10-03T06:04:17.131Z,19.25
2016-10-03T06:04:43.389Z,19.32
2016-10-03T06:05:09.105Z,19.32
2016-10-03T06:05:35.483Z,19.31
2016-10-03T06:06:01.421Z,19.32
2016-10-03T06:06:27.988Z,19.31
2016-10-03T06:06:53.888Z,19.42
2016-10-03T06:07:20.043Z,19.31
2016-10-03T06:08:11.160Z,19.33
2016-10-03T06:08:37.517Z,19.32
2016-10-03T06:09:03.322Z,19.36
2016-10-03T06:09:29.218Z,19.33
2016-10-03T06:09:55.628Z,19.38
2016-10-03T06:10:21.280Z,19.35
2016-10-03T06:11:43.355Z,19.33
2016-10-03T06:12:09.253Z,19.31
2016-10-03T06:12:34.809Z,19.25
2016-10-03T06:13:00.544Z,19.36
2016-10-03T06:13:26.314Z,19.33
2016-10-03T06:13:51.886Z,19.29
2016-10-03T06:14:17.454Z,19.38
2016-10-03T06:15:10.425Z,19.25
2016-10-03T06:17:17.593Z,19.31
2016-10-03T06:17:43.157Z,19.39
2016-10-03T06:18:08.727Z,19.4
2016-10-03T06:18:34.360Z,19.36
2016-10-03T06:19:22.376Z,19.4
2016-10-03T06:20:20.530Z,19.33
2016-10-03T06:20:46.168Z,19.35
2016-10-03T06:21:11.680Z,19.35
2016-10-03T06:21:37.231Z,19.38
2016-10-03T06:22:02.797Z,19.28
2016-10-03T06:22:28.354Z,19.35
2016-10-03T06:22:53.930Z,19.39
2016-10-03T06:23:19.794Z,19.38
2016-10-03T06:23:45.421Z,19.4
2016-10-03T06:24:38.356Z,19.47
2016-10-03T06:25:04.022Z,19.42
2016-10-03T06:25:29.941Z,19.42
2016-10-03T06:25:55.476Z,19.42
2016-10-03T06:26:21.035Z,19.36
2016-10-03T06:26:46.586Z,19.42
2016-10-03T06:27:12.134Z,19.4
2016-10-03T06:27:37.691Z,19.39
2016-10-03T06:28:03.254Z,19.4
2016-10-03T06:28:28.856Z,19.39
2016-10-03T06:28:54.445Z,19.32
2016-10-03T06:29:20.158Z,19.36
2016-10-03T06:29:45.721Z,19.42
2016-10-03T06:30:11.291Z,19.32
2016-10-03T06:30:36.842Z,19.42
2016-10-03T06:31:02.548Z,19.46
2016-10-03T06:31:28.100Z,19.4
2016-10-03T06:31:53.685Z,19.46
2016-10-03T06:32:19.290Z,19.35
2016-10-03T06:32:44.937Z,19.33
2016-10-03T06:33:10.509Z,19.42
2016-10-03T06:33:36.155Z,19.35
2016-10-03T06:34:01.708Z,19.46
2016-10-03T06:34:27.279Z,19.42
2016-10-03T06:34:52.815Z,19.4
2016-10-03T06:35:18.388Z,19.4
2016-10-03T06:36:06.255Z,19.48
2016-10-03T06:36:31.968Z,19.39
2016-10-03T06:36:57.536Z,19.47
2016-10-03T06:37:23.107Z,19.42
2016-10-03T06:37:48.707Z,19.48
2016-10-03T06:38:14.250Z,19.47
2016-10-03T06:38:39.810Z,19.5
2016-10-03T06:39:48.263Z,19.5
2016-10-03T06:40:13.807Z,19.5
2016-10-03T06:40:39.369Z,19.5
2016-10-03T06:41:04.922Z,19.51
2016-10-03T06:41:30.469Z,19.53
2016-10-03T06:41:56.045Z,19.53
2016-10-03T06:42:21.687Z,19.47
2016-10-03T06:42:47.179Z,19.53
2016-10-03T06:43:12.786Z,19.51
2016-10-03T06:43:38.637Z,19.51
2016-10-03T06:44:04.014Z,19.48
2016-10-03T06:44:29.506Z,19.6
2016-10-03T06:44:55.130Z,19.5
2016-10-03T06:45:21.065Z,19.55
2016-10-03T06:45:46.586Z,19.57
2016-10-03T06:46:12.145Z,19.53
2016-10-03T06:46:37.743Z,19.57
2016-10-03T06:47:03.298Z,19.57
2016-10-03T06:47:28.865Z,19.61
2016-10-03T06:47:54.434Z,19.54
2016-10-03T06:48:19.999Z,19.57
2016-10-03T06:48:45.569Z,19.54
2016-10-03T06:49:11.161Z,19.53
2016-10-03T06:49:36.741Z,19.6
2016-10-03T06:50:02.295Z,19.66
2016-10-03T06:50:27.847Z,19.6
2016-10-03T06:50:53.409Z,19.6
2016-10-03T06:51:18.959Z,19.65
2016-10-03T06:51:44.514Z,19.65
2016-10-03T06:52:10.063Z,19.65
2016-10-03T06:52:35.622Z,19.65
2016-10-03T06:53:01.220Z,19.58
2016-10-03T06:54:09.529Z,19.68
2016-10-03T06:54:35.157Z,19.65
2016-10-03T06:55:00.774Z,19.65
2016-10-03T06:55:26.613Z,19.65
2016-10-03T06:55:52.163Z,19.61
2016-10-03T06:56:17.733Z,19.61
2016-10-03T06:56:43.304Z,19.65
2016-10-03T06:57:08.844Z,19.63
2016-10-03T06:57:34.382Z,19.65
2016-10-03T06:57:59.942Z,19.6
2016-10-03T06:58:25.505Z,19.68
2016-10-03T06:58:51.083Z,19.61
2016-10-03T06:59:16.673Z,19.55
2016-10-03T06:59:42.248Z,19.72
2016-10-03T07:00:07.806Z,19.7
2016-10-03T07:00:33.346Z,19.73
2016-10-03T07:00:58.907Z,19.68
2016-10-03T07:01:24.501Z,19.72
2016-10-03T07:01:50.492Z,19.73
2016-10-03T07:02:16.076Z,19.66
2016-10-03T07:02:41.650Z,19.66
2016-10-03T07:03:07.207Z,19.69
2016-10-03T07:03:32.770Z,19.69
2016-10-03T07:03:58.362Z,19.72
2016-10-03T07:04:23.918Z,19.66
2016-10-03T07:04:49.506Z,19.7
2016-10-03T07:05:15.067Z,19.65
2016-10-03T07:05:40.636Z,19.69
2016-10-03T07:06:06.246Z,19.66
2016-10-03T07:06:31.882Z,19.7
2016-10-03T07:06:57.505Z,19.68
2016-10-03T07:07:23.180Z,19.73
2016-10-03T07:07:48.806Z,19.75
2016-10-03T07:08:14.469Z,19.63
2016-10-03T07:08:40.125Z,19.72
2016-10-03T07:09:05.770Z,19.7
2016-10-03T07:09:31.456Z,19.7
2016-10-03T07:09:57.021Z,19.79
2016-10-03T07:10:22.741Z,19.78
2016-10-03T07:10:48.337Z,19.8
2016-10-03T07:11:13.873Z,19.75
2016-10-03T07:11:39.468Z,19.72
2016-10-03T07:12:05.133Z,19.79
2016-10-03T07:12:30.695Z,19.78
2016-10-03T07:12:56.397Z,19.8
2016-10-03T07:13:22.101Z,19.8
2016-10-03T07:13:47.672Z,19.73
2016-10-03T07:14:13.231Z,19.86
2016-10-03T07:14:38.778Z,19.86
2016-10-03T07:15:04.355Z,19.76
2016-10-03T07:15:29.921Z,19.86
2016-10-03T07:15:55.512Z,19.79
2016-10-03T07:16:21.202Z,19.78
2016-10-03T07:16:46.839Z,19.88
2016-10-03T07:17:12.407Z,19.88
2016-10-03T07:17:38.093Z,19.88
2016-10-03T07:18:03.869Z,19.79
2016-10-03T07:18:29.249Z,19.79
2016-10-03T07:18:54.820Z,19.83
2016-10-03T07:19:20.638Z,19.91
2016-10-03T07:19:46.215Z,19.8
2016-10-03T07:20:11.997Z,19.9
2016-10-03T07:20:37.669Z,19.79
2016-10-03T07:21:03.228Z,19.84
2016-10-03T07:21:28.784Z,19.86
2016-10-03T07:21:54.328Z,19.84
2016-10-03T07:22:19.939Z,19.86
2016-10-03T07:22:45.509Z,19.88
2016-10-03T07:23:11.090Z,19.84
2016-10-03T07:23:36.690Z,19.88
2016-10-03T07:24:02.427Z,19.9
2016-10-03T07:24:28.022Z,19.93
2016-10-03T07:24:53.628Z,19.93
2016-10-03T07:25:19.802Z,19.93
2016-10-03T07:25:45.408Z,19.9
2016-10-03T07:26:10.987Z,19.95
2016-10-03T07:26:36.543Z,19.95
2016-10-03T07:27:02.156Z,19.9
2016-10-03T07:28:10.782Z,19.94
2016-10-03T07:28:36.511Z,19.97
2016-10-03T07:29:02.084Z,19.93
2016-10-03T07:29:27.905Z,19.94
2016-10-03T07:29:53.471Z,19.93
2016-10-03T07:30:19.742Z,19.94
2016-10-03T07:30:45.385Z,19.94
2016-10-03T07:31:10.989Z,19.93
2016-10-03T07:31:36.544Z,19.93
2016-10-03T07:32:02.165Z,20.02
2016-10-03T07:32:27.741Z,19.94
2016-10-03T07:32:53.291Z,20
2016-10-03T07:33:18.884Z,19.98
2016-10-03T07:33:44.452Z,20
2016-10-03T07:34:10.025Z,19.95
2016-10-03T07:34:35.593Z,19.9
2016-10-03T07:35:01.158Z,19.98
2016-10-03T07:35:27.117Z,19.98
2016-10-03T07:35:53.413Z,19.98
2016-10-03T07:36:19.905Z,19.95
2016-10-03T07:36:45.474Z,20
2016-10-03T07:37:11.034Z,19.98
2016-10-03T07:37:36.593Z,19.95
2016-10-03T07:38:02.222Z,20
2016-10-03T07:38:27.792Z,19.95
2016-10-03T07:38:53.415Z,19.97
2016-10-03T07:39:19.031Z,19.98
2016-10-03T07:39:44.634Z,19.98
2016-10-03T07:40:10.213Z,19.98
2016-10-03T07:41:03.284Z,20.02
2016-10-03T07:41:28.961Z,19.93
2016-10-03T07:41:54.521Z,19.97
2016-10-03T07:42:20.078Z,19.98
2016-10-03T07:42:45.741Z,19.94
2016-10-03T07:43:11.283Z,20
2016-10-03T07:43:36.898Z,19.97
2016-10-03T07:44:02.656Z,20
2016-10-03T07:44:28.465Z,19.94
2016-10-03T07:44:54.311Z,19.97
2016-10-03T07:45:19.874Z,19.97
2016-10-03T07:45:45.456Z,19.97
2016-10-03T07:46:11.013Z,19.98
2016-10-03T07:46:36.565Z,19.97
2016-10-03T07:47:02.151Z,19.98
2016-10-03T07:47:27.781Z,20.03
2016-10-03T07:47:53.336Z,20.03
2016-10-03T07:48:19.039Z,20.03
2016-10-03T07:48:44.610Z,19.94
2016-10-03T07:49:10.159Z,19.98
2016-10-03T07:49:35.761Z,20.03
2016-10-03T07:50:01.329Z,20
2016-10-03T07:50:26.989Z,20.03
2016-10-03T07:50:52.546Z,20.03
2016-10-03T07:51:18.113Z,19.95
2016-10-03T07:51:44.282Z,20.02
2016-10-03T07:52:09.881Z,20.06
2016-10-03T07:52:35.508Z,20
2016-10-03T07:53:01.142Z,20.02
2016-10-03T07:53:26.801Z,20
2016-10-03T07:53:52.343Z,20.09
2016-10-03T07:54:18.097Z,20.08
2016-10-03T07:54:43.577Z,20
2016-10-03T07:55:09.261Z,20
2016-10-03T07:55:34.829Z,20.05
2016-10-03T07:56:00.432Z,20.03
2016-10-03T07:57:08.828Z,20
2016-10-03T07:57:34.764Z,20.09
2016-10-03T07:58:00.351Z,20
2016-10-03T07:58:25.914Z,20.08
2016-10-03T07:58:51.488Z,20.05
2016-10-03T07:59:17.079Z,20.05
2016-10-03T07:59:42.748Z,20.02
2016-10-03T08:00:08.313Z,20.08
2016-10-03T08:00:33.901Z,20.03
2016-10-03T08:00:59.509Z,20
2016-10-03T08:01:25.493Z,20
2016-10-03T08:01:51.750Z,20.08
2016-10-03T08:02:17.295Z,20
2016-10-03T08:02:42.852Z,20.08
2016-10-03T08:03:08.548Z,20.1
2016-10-03T08:03:34.110Z,19.98
2016-10-03T08:03:59.663Z,20.06
2016-10-03T08:04:25.425Z,20.08
2016-10-03T08:04:50.994Z,20
2016-10-03T08:05:16.610Z,20.06
2016-10-03T08:05:42.161Z,20.1
2016-10-03T08:06:07.886Z,20.13
2016-10-03T08:06:33.688Z,20.13
2016-10-03T08:06:59.463Z,20.09
2016-10-03T08:07:25.061Z,20.12
2016-10-03T08:07:50.620Z,20.12
2016-10-03T08:08:16.177Z,20.02
2016-10-03T08:08:41.723Z,20.12
2016-10-03T08:09:07.259Z,20.09
2016-10-03T08:09:32.849Z,20.05
2016-10-03T08:09:58.412Z,20.09
2016-10-03T08:10:24.172Z,20.15
2016-10-03T08:10:49.718Z,20.03
2016-10-03T08:11:15.290Z,20.13
2016-10-03T08:11:40.946Z,20.15
2016-10-03T08:12:06.513Z,20.16
2016-10-03T08:13:05.155Z,20.15
2016-10-03T08:13:30.803Z,20.13
2016-10-03T08:13:56.359Z,20.1
2016-10-03T08:14:21.921Z,20.15
2016-10-03T08:14:47.536Z,20.06
2016-10-03T08:15:13.129Z,20.1
2016-10-03T08:15:38.739Z,20.08
2016-10-03T08:16:04.428Z,20.08
2016-10-03T08:16:30.050Z,20.09
2016-10-03T08:16:55.835Z,20.13
2016-10-03T08:18:08.840Z,20.18
2016-10-03T08:18:34.558Z,20.08
2016-10-03T08:19:00.087Z,20.09
2016-10-03T08:19:25.658Z,20.15
2016-10-03T08:19:51.355Z,20.09
2016-10-03T08:20:16.986Z,20.12
2016-10-03T08:20:42.554Z,20.16
2016-10-03T08:21:08.749Z,20.15
2016-10-03T08:21:34.307Z,20.16
2016-10-03T08:21:59.881Z,20.2
2016-10-03T08:22:26.068Z,20.09
2016-10-03T08:22:51.766Z,20.16
2016-10-03T08:23:17.938Z,20.24
2016-10-03T08:23:43.499Z,20.24
2016-10-03T08:24:09.635Z,20.18
2016-10-03T08:24:35.217Z,20.25
2016-10-03T08:25:00.791Z,20.23
2016-10-03T08:25:27.046Z,20.27
2016-10-03T08:25:52.685Z,20.2
2016-10-03T08:26:18.822Z,20.2
2016-10-03T08:26:44.686Z,20.24
2016-10-03T08:27:10.273Z,20.23
2016-10-03T08:27:36.121Z,20.2
2016-10-03T08:28:01.767Z,20.16
2016-10-03T08:28:28.048Z,20.24
2016-10-03T08:28:53.692Z,20.28
2016-10-03T08:29:19.676Z,20.24
2016-10-03T08:29:45.222Z,20.28
2016-10-03T08:30:10.787Z,20.2
2016-10-03T08:30:37.102Z,20.23
2016-10-03T08:31:02.686Z,20.18
2016-10-03T08:31:28.823Z,20.24
2016-10-03T08:31:54.442Z,20.2
2016-10-03T08:32:19.992Z,20.18
2016-10-03T08:32:46.184Z,20.23
2016-10-03T08:33:11.733Z,20.23
2016-10-03T08:34:03.553Z,20.21
2016-10-03T08:34:29.862Z,20.24
2016-10-03T08:34:55.432Z,20.24
2016-10-03T08:35:21.002Z,20.27
2016-10-03T08:35:47.103Z,20.25
2016-10-03T08:36:12.664Z,20.24
2016-10-03T08:36:39.089Z,20.18
2016-10-03T08:37:04.682Z,20.24
2016-10-03T08:37:30.243Z,20.27
2016-10-03T08:37:56.366Z,20.27
2016-10-03T08:38:21.980Z,20.24
2016-10-03T08:38:48.052Z,20.25
2016-10-03T08:39:13.607Z,20.23
2016-10-03T08:39:39.980Z,20.27
2016-10-03T08:40:05.566Z,20.27
2016-10-03T08:40:31.119Z,20.24
2016-10-03T08:40:57.178Z,20.28
2016-10-03T08:41:22.759Z,20.21
2016-10-03T08:42:31.952Z,20.24
2016-10-03T08:42:57.512Z,20.23
2016-10-03T08:43:23.057Z,20.23
2016-10-03T08:43:48.705Z,20.21
2016-10-03T08:44:14.333Z,20.3
2016-10-03T08:44:40.073Z,20.27
2016-10-03T08:45:05.651Z,20.24
2016-10-03T08:45:31.234Z,20.3
2016-10-03T08:45:56.960Z,20.23
2016-10-03T08:46:22.508Z,20.33
2016-10-03T08:46:48.154Z,20.24
2016-10-03T08:47:13.792Z,20.34
2016-10-03T08:47:39.382Z,20.33
2016-10-03T08:48:05.020Z,20.33
2016-10-03T08:48:30.585Z,20.28
2016-10-03T08:48:56.281Z,20.35
2016-10-03T08:49:22.066Z,20.33
2016-10-03T08:49:47.650Z,20.31
2016-10-03T08:50:13.259Z,20.33
2016-10-03T08:50:38.839Z,20.34
2016-10-03T08:51:04.458Z,20.3